createdAt,value
2022-11-03T00:02:24.267Z,101784.00
2022-11-03T00:04:53.075Z,101782.20
2022-11-03T00:07:22.583Z,101786.20
2022-11-03T00:09:51.258Z,101783.80
2022-11-03T00:12:19.852Z,101780.00
2022-11-03T00:14:48.444Z,101776.80
2022-11-03T00:17:17.124Z,101773.40
2022-11-03T00:19:45.708Z,101779.00
2022-11-03T00:22:14.189Z,101774.20
2022-11-03T00:24:42.671Z,101778.60
2022-11-03T00:27:11.153Z,101775.40
2022-11-03T00:29:39.739Z,101767.60
2022-11-03T00:32:08.220Z,101764.80
2022-11-03T00:34:37.010Z,101766.60
2022-11-03T00:37:05.491Z,101767.60
2022-11-03T00:39:34.076Z,101764.20
2022-11-03T00:42:02.762Z,101757.80
2022-11-03T00:44:31.348Z,101763.80
2022-11-03T00:46:59.931Z,101759.00
2022-11-03T00:49:28.516Z,101757.20
2022-11-03T00:51:57.101Z,101762.20
2022-11-03T00:54:25.687Z,101764.80
2022-11-03T00:56:54.391Z,101755.80
2022-11-03T00:59:23.062Z,101760.60
2022-11-03T01:01:51.729Z,101755.60
2022-11-03T01:04:39.172Z,101752.00
2022-11-03T01:07:07.960Z,101751.20
2022-11-03T01:09:43.610Z,101753.20
2022-11-03T01:12:19.560Z,101753.40
2022-11-03T01:14:51.926Z,101752.00
2022-11-03T01:17:27.148Z,101753.80
2022-11-03T01:19:56.148Z,101747.60
2022-11-03T01:22:24.863Z,101745.00
2022-11-03T01:24:53.446Z,101746.60
2022-11-03T01:27:26.031Z,101755.00
2022-11-03T01:29:54.611Z,101754.40
2022-11-03T01:32:23.196Z,101753.40
2022-11-03T01:34:51.675Z,101752.60
2022-11-03T01:37:20.157Z,101751.20
2022-11-03T01:39:48.854Z,101746.40
2022-11-03T01:42:18.124Z,101749.20
2022-11-03T01:44:49.051Z,101742.40
2022-11-03T01:47:24.263Z,101742.80
2022-11-03T01:50:20.782Z,101741.60
2022-11-03T01:52:57.550Z,101737.80
2022-11-03T01:55:36.593Z,101738.80
2022-11-03T01:58:33.211Z,101735.40
2022-11-03T02:01:02.883Z,101734.00
2022-11-03T02:03:38.572Z,101727.00
2022-11-03T02:06:08.388Z,101727.20
2022-11-03T02:09:08.679Z,101723.00
2022-11-03T02:11:57.472Z,101718.00
2022-11-03T02:14:26.476Z,101718.60
2022-11-03T02:16:59.575Z,101714.60
2022-11-03T02:20:12.880Z,101711.60
2022-11-03T02:23:01.651Z,101706.80
2022-11-03T02:25:54.991Z,101714.40
2022-11-03T02:28:31.696Z,101718.80
2022-11-03T02:31:13.502Z,101716.00
2022-11-03T02:34:00.157Z,101713.60
2022-11-03T02:36:52.029Z,101714.80
2022-11-03T02:39:46.842Z,101704.60
2022-11-03T02:42:18.542Z,101709.40
2022-11-03T02:44:49.007Z,101699.00
2022-11-03T02:47:18.409Z,101704.00
2022-11-03T02:49:50.181Z,101707.00
2022-11-03T02:52:47.165Z,101704.00
2022-11-03T02:55:38.030Z,101705.40
2022-11-03T02:58:19.720Z,101700.60
2022-11-03T03:01:15.184Z,101702.80
2022-11-03T03:03:58.358Z,101700.80
2022-11-03T03:06:49.376Z,101696.40
2022-11-03T03:09:31.334Z,101701.80
2022-11-03T03:12:03.091Z,101700.40
2022-11-03T03:14:38.602Z,101704.20
2022-11-03T03:17:50.984Z,101704.80
2022-11-03T03:20:47.421Z,101704.60
2022-11-03T03:23:23.934Z,101708.60
2022-11-03T03:26:09.482Z,101707.40
2022-11-03T03:28:50.280Z,101709.00
2022-11-03T03:31:20.645Z,101708.40
2022-11-03T03:33:59.739Z,101709.20
2022-11-03T03:36:35.353Z,101705.20
2022-11-03T03:39:08.189Z,101700.00
2022-11-03T03:41:38.675Z,101702.20
2022-11-03T03:44:09.904Z,101705.60
2022-11-03T03:46:46.693Z,101705.20
2022-11-03T03:49:15.477Z,101706.60
2022-11-03T03:51:46.157Z,101704.60
2022-11-03T03:54:14.591Z,101697.40
2022-11-03T03:57:02.025Z,101690.20
2022-11-03T03:59:31.011Z,101688.60
2022-11-03T04:02:00.024Z,101684.20
2022-11-03T04:04:29.683Z,101679.20
2022-11-03T04:07:16.756Z,101683.80
2022-11-03T04:09:45.319Z,101684.60
2022-11-03T04:12:32.440Z,101677.20
2022-11-03T04:15:19.863Z,101673.80
2022-11-03T04:18:08.796Z,101676.40
2022-11-03T04:20:56.559Z,101669.60
2022-11-03T04:23:25.655Z,101664.00
2022-11-03T04:25:56.869Z,101664.80
2022-11-03T04:28:26.355Z,101657.60
2022-11-03T04:30:59.884Z,101653.60
2022-11-03T04:33:30.138Z,101654.20
2022-11-03T04:36:00.754Z,101658.60
2022-11-03T04:38:29.858Z,101656.00
2022-11-03T04:40:59.401Z,101647.00
2022-11-03T04:43:37.111Z,101643.80
2022-11-03T04:46:10.742Z,101643.80
2022-11-03T04:48:39.564Z,101648.40
2022-11-03T04:51:18.689Z,101642.00
2022-11-03T04:53:54.883Z,101635.60
2022-11-03T04:56:25.999Z,101631.60
2022-11-03T04:58:54.990Z,101627.00
2022-11-03T05:01:25.157Z,101633.60
2022-11-03T05:03:55.239Z,101630.60
2022-11-03T05:06:30.020Z,101630.00
2022-11-03T05:09:12.886Z,101624.20
2022-11-03T05:11:46.908Z,101632.00
2022-11-03T05:14:17.340Z,101619.60
2022-11-03T05:16:47.760Z,101622.40
2022-11-03T05:19:24.653Z,101626.40
2022-11-03T05:21:55.882Z,101627.80
2022-11-03T05:24:26.357Z,101624.40
2022-11-03T05:26:58.291Z,101617.40
2022-11-03T05:29:34.056Z,101616.00
2022-11-03T05:32:02.702Z,101620.60
2022-11-03T05:34:31.292Z,101616.40
2022-11-03T05:37:06.330Z,101606.40
2022-11-03T05:39:43.570Z,101603.00
2022-11-03T05:42:30.421Z,101604.40
2022-11-03T05:45:02.454Z,101606.00
2022-11-03T05:47:39.236Z,101605.20
2022-11-03T05:50:19.420Z,101607.40
2022-11-03T05:52:51.765Z,101603.80
2022-11-03T05:55:32.075Z,101597.60
2022-11-03T05:58:12.516Z,101598.60
2022-11-03T06:00:48.086Z,101601.80
2022-11-03T06:03:23.314Z,101596.20
2022-11-03T06:05:53.611Z,101597.60
2022-11-03T06:08:26.695Z,101597.80
2022-11-03T06:10:58.796Z,101601.80
2022-11-03T06:13:33.494Z,101595.80
2022-11-03T06:16:11.266Z,101598.20
2022-11-03T06:18:40.102Z,101597.40
2022-11-03T06:21:16.883Z,101594.00
2022-11-03T06:23:45.668Z,101591.60
2022-11-03T06:26:22.855Z,101587.40
2022-11-03T06:28:51.848Z,101581.60
2022-11-03T06:31:28.550Z,101584.00
2022-11-03T06:33:59.153Z,101577.60
2022-11-03T06:36:37.629Z,101575.00
2022-11-03T06:39:26.650Z,101571.40
2022-11-03T06:41:55.118Z,101574.80
2022-11-03T06:44:31.179Z,101571.60
2022-11-03T06:47:14.057Z,101567.40
2022-11-03T06:49:43.564Z,101565.40
2022-11-03T06:52:38.093Z,101564.60
2022-11-03T06:55:15.646Z,101562.80
2022-11-03T06:57:48.285Z,101558.00
2022-11-03T07:00:34.729Z,101560.20
2022-11-03T07:03:33.656Z,101552.40
2022-11-03T07:06:25.702Z,101548.60
2022-11-03T07:09:02.014Z,101544.40
2022-11-03T07:11:35.034Z,101548.40
2022-11-03T07:14:15.607Z,101548.20
2022-11-03T07:16:57.932Z,101554.20
2022-11-03T07:19:46.239Z,101546.00
2022-11-03T07:22:24.515Z,101548.00
2022-11-03T07:24:57.176Z,101550.00
2022-11-03T07:27:37.403Z,101550.20
2022-11-03T07:30:15.435Z,101550.80
2022-11-03T07:32:44.015Z,101549.40
2022-11-03T07:35:18.746Z,101545.80
2022-11-03T07:37:50.707Z,101542.40
2022-11-03T07:40:24.990Z,101538.40
2022-11-03T07:42:59.447Z,101541.80
2022-11-03T07:45:43.292Z,101532.20
2022-11-03T07:48:45.770Z,101526.40
2022-11-03T07:51:30.040Z,101520.00
2022-11-03T07:54:31.066Z,101509.80
2022-11-03T07:57:06.408Z,101500.20
2022-11-03T07:59:42.982Z,101494.60
2022-11-03T08:02:36.578Z,101490.20
2022-11-03T08:05:06.280Z,101483.60
2022-11-03T08:07:34.846Z,101478.20
2022-11-03T08:10:04.222Z,101468.60
2022-11-03T08:12:32.738Z,101462.60
2022-11-03T08:15:01.525Z,101447.20
2022-11-03T08:17:30.107Z,101442.20
2022-11-03T08:19:58.793Z,101439.60
2022-11-03T08:22:27.376Z,101433.60
2022-11-03T08:24:55.960Z,101419.60
2022-11-03T08:27:24.548Z,101408.60
2022-11-03T08:29:54.173Z,101403.00
2022-11-03T08:32:22.636Z,101400.00
2022-11-03T08:34:51.220Z,101393.40
2022-11-03T08:37:19.906Z,101391.00
2022-11-03T08:39:48.645Z,101380.80
2022-11-03T08:42:17.383Z,101373.80
2022-11-03T08:44:45.967Z,101367.00
2022-11-03T08:47:14.449Z,101367.80
2022-11-03T08:49:43.034Z,101366.40
2022-11-03T08:52:11.619Z,101365.00
2022-11-03T08:54:40.412Z,101363.20
2022-11-03T08:57:09.401Z,101354.20
2022-11-03T08:59:38.805Z,101354.60
2022-11-03T09:02:07.560Z,101341.20
2022-11-03T09:04:36.470Z,101344.80
2022-11-03T09:07:05.070Z,101340.60
2022-11-03T09:12:22.617Z,101348.40
2022-11-03T09:14:51.237Z,101347.80
2022-11-03T09:17:19.887Z,101342.40
2022-11-03T09:19:50.086Z,101334.80
2022-11-03T09:22:19.105Z,101342.00
2022-11-03T09:24:47.692Z,101343.00
2022-11-03T09:27:16.278Z,101339.80
2022-11-03T09:30:11.175Z,101334.60
2022-11-03T09:32:34.075Z,101331.60
2022-11-03T09:35:02.609Z,101325.60
2022-11-03T09:37:31.296Z,101320.40
2022-11-03T09:39:59.983Z,101313.80
2022-11-03T09:42:29.184Z,101311.60
2022-11-03T09:44:57.867Z,101304.40
2022-11-03T09:47:35.772Z,101304.20
2022-11-03T09:50:05.384Z,101304.80
2022-11-03T09:52:36.729Z,101291.00
2022-11-03T09:55:19.960Z,101293.80
2022-11-03T09:57:48.754Z,101292.00
2022-11-03T10:00:22.041Z,101290.60
2022-11-03T10:02:51.306Z,101280.80
2022-11-03T10:05:25.750Z,101281.80
2022-11-03T10:08:03.237Z,101281.80
2022-11-03T10:10:32.572Z,101275.00
2022-11-03T10:13:02.175Z,101272.60
2022-11-03T10:15:30.751Z,101268.40
2022-11-03T10:17:59.336Z,101273.00
2022-11-03T10:20:29.073Z,101267.00
2022-11-03T10:22:57.529Z,101262.00
2022-11-03T10:25:42.543Z,101258.00
2022-11-03T10:28:26.981Z,101254.00
2022-11-03T10:31:14.315Z,101245.20
2022-11-03T10:33:54.888Z,101235.00
2022-11-03T10:36:30.144Z,101232.40
2022-11-03T10:38:59.303Z,101221.80
2022-11-03T10:41:30.965Z,101217.40
2022-11-03T10:44:13.244Z,101207.80
2022-11-03T10:47:05.498Z,101208.00
2022-11-03T10:49:40.825Z,101201.00
2022-11-03T10:52:27.888Z,101197.80
2022-11-03T10:54:59.705Z,101194.20
2022-11-03T10:57:29.010Z,101190.20
2022-11-03T10:59:58.449Z,101182.60
2022-11-03T11:02:32.316Z,101175.60
2022-11-03T11:05:03.754Z,101177.20
2022-11-03T11:07:40.090Z,101168.60
2022-11-03T11:10:24.611Z,101166.20
2022-11-03T11:13:25.871Z,101168.20
2022-11-03T11:16:03.092Z,101165.20
2022-11-03T11:18:31.548Z,101157.20
2022-11-03T11:21:00.820Z,101155.80
2022-11-03T11:23:29.357Z,101155.60
2022-11-03T11:26:09.902Z,101150.20
2022-11-03T11:28:47.232Z,101150.20
2022-11-03T11:31:30.327Z,101136.00
2022-11-03T11:34:34.199Z,101133.00
2022-11-03T11:37:04.001Z,101127.00
2022-11-03T11:39:33.859Z,101117.40
2022-11-03T11:42:12.648Z,101120.80
2022-11-03T11:44:46.145Z,101107.20
2022-11-03T11:47:49.762Z,101106.00
2022-11-03T11:50:24.113Z,101101.40
2022-11-03T11:53:11.937Z,101088.80
2022-11-03T11:55:49.207Z,101086.60
2022-11-03T11:58:46.728Z,101083.40
2022-11-03T12:01:31.419Z,101087.20
2022-11-03T12:04:27.032Z,101081.80
2022-11-03T12:06:56.702Z,101071.00
2022-11-03T12:09:28.630Z,101065.80
2022-11-03T12:12:05.239Z,101058.80
2022-11-03T12:14:39.395Z,101052.20
2022-11-03T12:17:17.370Z,101049.40
2022-11-03T12:19:50.598Z,101048.20
2022-11-03T12:22:25.055Z,101040.80
2022-11-03T12:25:07.129Z,101046.40
2022-11-03T12:27:35.594Z,101040.40
2022-11-03T12:30:16.286Z,101037.00
2022-11-03T12:32:46.315Z,101036.40
2022-11-03T12:35:15.517Z,101023.20
2022-11-03T12:37:44.062Z,101020.00
2022-11-03T12:40:14.630Z,101019.60
2022-11-03T12:42:43.203Z,101016.40
2022-11-03T12:45:13.978Z,101012.80
2022-11-03T12:47:42.808Z,101013.40
2022-11-03T12:50:11.723Z,101009.00
2022-11-03T12:52:40.282Z,101003.80
2022-11-03T12:55:09.712Z,101002.60
2022-11-03T12:57:38.266Z,100999.40
2022-11-03T13:00:08.295Z,100999.20
2022-11-03T13:02:37.174Z,100991.20
2022-11-03T13:05:07.263Z,100989.20
2022-11-03T13:07:35.883Z,100990.80
2022-11-03T13:10:05.142Z,100986.80
2022-11-03T13:12:35.360Z,100982.00
2022-11-03T13:15:07.741Z,100974.00
2022-11-03T13:17:59.240Z,100972.60
2022-11-03T13:20:24.843Z,100974.60
2022-11-03T13:22:53.400Z,100973.40
2022-11-03T13:25:24.636Z,100967.00
2022-11-03T13:27:56.107Z,100961.80
2022-11-03T13:30:27.672Z,100958.20
2022-11-03T13:32:56.919Z,100957.20
2022-11-03T13:35:25.674Z,100957.20
2022-11-03T13:37:54.348Z,100953.40
2022-11-03T13:43:12.105Z,100953.80
2022-11-03T13:45:40.870Z,100946.60
2022-11-03T13:49:04.094Z,100940.80
2022-11-03T13:51:00.497Z,100939.80
2022-11-03T13:56:21.882Z,100931.20
2022-11-03T14:01:41.072Z,100921.40
2022-11-03T14:06:59.252Z,100911.40
2022-11-03T14:09:27.868Z,100910.00
2022-11-03T14:12:15.376Z,100907.40
2022-11-03T14:14:43.951Z,100908.60
2022-11-03T14:17:12.734Z,100904.60
2022-11-03T14:19:45.945Z,100907.00
2022-11-03T14:22:16.207Z,100903.80
2022-11-03T14:24:44.834Z,100900.60
2022-11-03T14:27:13.622Z,100891.60
2022-11-03T14:29:49.959Z,100891.00
2022-11-03T14:32:19.760Z,100884.60
2022-11-03T14:34:48.791Z,100882.80
2022-11-03T14:37:17.846Z,100877.00
2022-11-03T14:39:46.477Z,100875.80
2022-11-03T14:42:16.837Z,100868.20
2022-11-03T14:44:47.333Z,100858.80
2022-11-03T14:47:19.264Z,100858.00
2022-11-03T14:49:49.018Z,100853.00
2022-11-03T14:52:18.519Z,100848.80
2022-11-03T14:54:47.104Z,100841.20
2022-11-03T14:57:15.682Z,100838.60
2022-11-03T14:59:46.738Z,100831.80
2022-11-03T15:02:17.782Z,100828.20
2022-11-03T15:04:46.658Z,100825.60
2022-11-03T15:07:15.140Z,100826.60
2022-11-03T15:09:43.724Z,100818.40
2022-11-03T15:12:12.213Z,100823.60
2022-11-03T15:14:40.793Z,100813.40
2022-11-03T15:17:09.273Z,100807.80
2022-11-03T15:19:38.269Z,100806.80
2022-11-03T15:22:07.043Z,100809.00
2022-11-03T15:27:24.295Z,100796.60
2022-11-03T15:29:52.880Z,100802.40
2022-11-03T15:32:21.466Z,100793.60
2022-11-03T15:34:50.153Z,100792.40
2022-11-03T15:37:19.356Z,100790.20
2022-11-03T15:39:47.939Z,100784.80
2022-11-03T15:42:17.136Z,100771.40
2022-11-03T15:44:46.090Z,100766.40
2022-11-03T15:47:14.511Z,100771.20
2022-11-03T15:49:45.142Z,100770.20
2022-11-03T15:52:14.355Z,100764.00
2022-11-03T15:54:42.922Z,100758.00
2022-11-03T15:57:11.625Z,100751.80
2022-11-03T15:59:40.604Z,100753.40
2022-11-03T16:02:27.726Z,100750.80
2022-11-03T16:05:02.866Z,100750.40
2022-11-03T16:07:32.058Z,100748.00
2022-11-03T16:10:00.803Z,100745.20
2022-11-03T16:12:30.100Z,100740.60
2022-11-03T16:14:59.168Z,100737.20
2022-11-03T16:17:28.752Z,100737.00
2022-11-03T16:19:57.348Z,100731.60
2022-11-03T16:22:26.228Z,100734.00
2022-11-03T16:24:55.637Z,100732.80
2022-11-03T16:27:24.421Z,100722.20
2022-11-03T16:29:56.083Z,100718.80
2022-11-03T16:32:24.695Z,100709.00
2022-11-03T16:34:54.212Z,100707.00
2022-11-03T16:37:23.471Z,100703.20
2022-11-03T16:39:52.156Z,100693.00
2022-11-03T16:42:20.870Z,100689.40
2022-11-03T16:44:49.635Z,100681.80
2022-11-03T16:47:18.218Z,100672.00
2022-11-03T16:49:46.982Z,100664.40
2022-11-03T16:52:15.705Z,100665.00
2022-11-03T16:54:44.759Z,100658.80
2022-11-03T16:57:13.271Z,100661.00
2022-11-03T16:59:41.963Z,100663.40
2022-11-03T17:02:16.037Z,100663.20
2022-11-03T17:04:45.172Z,100660.20
2022-11-03T17:07:13.753Z,100655.40
2022-11-03T17:09:42.542Z,100653.80
2022-11-03T17:12:11.462Z,100650.60
2022-11-03T17:14:40.028Z,100649.00
2022-11-03T17:17:09.022Z,100648.40
2022-11-03T17:19:38.208Z,100639.20
2022-11-03T17:22:07.521Z,100643.60
2022-11-03T17:24:36.424Z,100643.60
2022-11-03T17:27:29.176Z,100648.60
2022-11-03T17:30:15.378Z,100640.00
2022-11-03T17:32:45.272Z,100625.80
2022-11-03T17:35:38.904Z,100620.40
2022-11-03T17:38:14.664Z,100617.80
2022-11-03T17:40:46.796Z,100617.20
2022-11-03T17:43:25.839Z,100620.60
2022-11-03T17:45:54.680Z,100615.00
2022-11-03T17:48:24.598Z,100612.00
2022-11-03T17:50:56.577Z,100602.00
2022-11-03T17:53:29.123Z,100593.20
2022-11-03T17:58:48.938Z,100585.40
2022-11-03T18:01:25.540Z,100583.40
2022-11-03T18:03:54.625Z,100575.60
2022-11-03T18:06:23.728Z,100570.20
2022-11-03T18:08:52.598Z,100556.00
2022-11-03T18:11:47.391Z,100549.20
2022-11-03T18:14:16.339Z,100535.40
2022-11-03T18:16:46.144Z,100530.00
2022-11-03T18:19:18.032Z,100526.60
2022-11-03T18:21:48.038Z,100524.20
2022-11-03T18:24:19.783Z,100520.60
2022-11-03T18:26:49.037Z,100515.80
2022-11-03T18:29:18.060Z,100508.00
2022-11-03T18:31:50.142Z,100501.20
2022-11-03T18:34:25.987Z,100497.00
2022-11-03T18:36:55.567Z,100492.80
2022-11-03T18:39:28.164Z,100486.40
2022-11-03T18:41:56.830Z,100478.40
2022-11-03T18:44:30.572Z,100481.20
2022-11-03T18:46:59.829Z,100489.00
2022-11-03T18:49:30.881Z,100482.80
2022-11-03T18:52:04.619Z,100479.60
2022-11-03T18:54:35.528Z,100478.60
2022-11-03T18:57:04.945Z,100470.80
2022-11-03T18:59:38.991Z,100467.80
2022-11-03T19:02:26.851Z,100459.20
2022-11-03T19:04:55.557Z,100440.80
2022-11-03T19:07:35.154Z,100437.80
2022-11-03T19:10:15.151Z,100429.40
2022-11-03T19:12:45.090Z,100432.20
2022-11-03T19:15:18.920Z,100430.40
2022-11-03T19:17:55.036Z,100418.40
2022-11-03T19:20:25.779Z,100403.20
2022-11-03T19:22:54.872Z,100405.80
2022-11-03T19:25:24.022Z,100396.00
2022-11-03T19:27:53.161Z,100398.00
2022-11-03T19:30:22.170Z,100394.20
2022-11-03T19:32:55.803Z,100389.00
2022-11-03T19:35:32.554Z,100384.00
2022-11-03T19:38:13.167Z,100372.00
2022-11-03T19:41:02.701Z,100365.00
2022-11-03T19:43:34.872Z,100360.40
2022-11-03T19:46:05.245Z,100345.00
2022-11-03T19:48:35.047Z,100340.40
2022-11-03T19:56:27.157Z,100324.40
2022-11-03T19:58:55.948Z,100323.60
2022-11-03T20:01:24.525Z,100324.20
2022-11-03T20:03:53.244Z,100322.60
2022-11-03T20:06:21.903Z,100318.20
2022-11-03T20:08:50.795Z,100306.40
2022-11-03T20:11:20.141Z,100309.00
2022-11-03T20:13:48.687Z,100307.20
2022-11-03T20:16:17.982Z,100304.00
2022-11-03T20:18:48.729Z,100302.20
2022-11-03T20:21:20.309Z,100306.00
2022-11-03T20:23:50.436Z,100296.60
2022-11-03T20:26:23.720Z,100294.60
2022-11-03T20:28:54.632Z,100295.80
2022-11-03T20:31:23.370Z,100292.00
2022-11-03T20:33:51.898Z,100286.40
2022-11-03T20:36:21.406Z,100284.80
2022-11-03T20:38:56.441Z,100284.80
2022-11-03T20:41:27.876Z,100276.80
2022-11-03T20:43:57.312Z,100278.20
2022-11-03T20:46:29.225Z,100272.20
2022-11-03T20:48:59.111Z,100281.20
2022-11-03T20:51:34.118Z,100271.80
2022-11-03T20:54:11.218Z,100269.60
2022-11-03T20:56:40.081Z,100270.80
2022-11-03T20:59:12.957Z,100269.20
2022-11-03T21:01:42.115Z,100265.40
2022-11-03T21:04:16.462Z,100258.40
2022-11-03T21:06:45.694Z,100256.80
2022-11-03T21:09:18.829Z,100252.40
2022-11-03T21:11:55.230Z,100250.20
2022-11-03T21:14:31.136Z,100247.60
2022-11-03T21:17:18.524Z,100241.00
2022-11-03T21:20:02.265Z,100232.80
2022-11-03T21:22:57.943Z,100231.40
2022-11-03T21:25:27.394Z,100236.80
2022-11-03T21:27:55.974Z,100234.80
2022-11-03T21:30:24.659Z,100232.40
2022-11-03T21:32:53.457Z,100224.80
2022-11-03T21:35:22.975Z,100223.60
2022-11-03T21:37:51.951Z,100221.40
2022-11-03T21:40:20.638Z,100217.80
2022-11-03T21:43:08.490Z,100211.00
2022-11-03T21:45:37.985Z,100206.00
2022-11-03T21:48:26.223Z,100210.80
2022-11-03T21:50:55.011Z,100207.40
2022-11-03T21:53:24.010Z,100200.40
2022-11-03T21:55:53.929Z,100190.40
2022-11-03T21:58:22.509Z,100195.40
2022-11-03T22:00:51.342Z,100188.40
2022-11-03T22:03:20.089Z,100187.00
2022-11-03T22:05:49.084Z,100186.00
2022-11-03T22:08:17.766Z,100190.20
2022-11-03T22:10:46.452Z,100185.80
2022-11-03T22:13:15.139Z,100183.80
2022-11-03T22:16:13.128Z,100190.00
2022-11-03T22:18:42.005Z,100180.00
2022-11-03T22:21:29.431Z,100180.60
2022-11-03T22:24:16.755Z,100179.20
2022-11-03T22:26:58.246Z,100177.40
2022-11-03T22:29:45.589Z,100168.80
2022-11-03T22:32:15.387Z,100172.60
2022-11-03T22:35:02.906Z,100168.60
2022-11-03T22:40:18.305Z,100173.40
2022-11-03T22:43:05.825Z,100166.80
2022-11-03T22:45:54.899Z,100166.60
2022-11-03T22:48:27.776Z,100171.00
2022-11-03T22:51:15.723Z,100168.60
2022-11-03T22:54:03.585Z,100169.20
2022-11-03T22:56:32.980Z,100169.80
2022-11-03T22:59:02.055Z,100166.20
2022-11-03T23:01:31.117Z,100165.20
2022-11-03T23:04:01.430Z,100157.80
2022-11-03T23:06:35.866Z,100156.60
2022-11-03T23:09:05.735Z,100154.80
2022-11-03T23:11:35.496Z,100151.40
2022-11-03T23:14:10.770Z,100147.20
2022-11-03T23:16:43.621Z,100140.00
2022-11-03T23:19:34.371Z,100142.00
2022-11-03T23:22:03.046Z,100143.60
2022-11-03T23:24:50.367Z,100142.80
2022-11-03T23:27:19.159Z,100138.60
2022-11-03T23:29:48.097Z,100141.60
2022-11-03T23:32:16.837Z,100134.40
2022-11-03T23:34:45.600Z,100128.80
2022-11-03T23:37:14.830Z,100125.60
2022-11-03T23:39:43.414Z,100122.60
2022-11-03T23:42:12.306Z,100122.80
2022-11-03T23:45:00.068Z,100122.40
2022-11-03T23:47:47.666Z,100111.40
2022-11-03T23:50:16.457Z,100100.60
2022-11-03T23:52:45.553Z,100097.20
2022-11-03T23:55:14.651Z,100095.60
2022-11-03T23:58:02.178Z,100090.00
